Time;durP1;ratioP1;P1;durP2;ratioP2;P2;SDS_P1;SDS_P2;PMS_P1;PMS_P2;Temp;Humidity;BMP_temperature;BMP_pressure;BME280_temperature;BME280_humidity;BME280_pressure;Samples;Min_cycle;Max_cycle;Signal;HPM_P1;HPM_P2
2023/02/27 00:00:25;;;;;;;0.10;0.10;;;0.30;99.90;;;;;;5020515;28;20758;-79
2023/02/27 00:02:52;;;;;;;0.10;0.10;;;0.30;99.90;;;;;;5021737;28;20187;-79
2023/02/27 00:05:18;;;;;;;0.10;0.10;;;0.40;99.90;;;;;;5020628;28;20884;-79
2023/02/27 00:07:44;;;;;;;0.10;0.10;;;0.40;99.90;;;;;;5020296;28;20186;-79
2023/02/27 00:10:11;;;;;;;0.10;0.10;;;0.40;99.90;;;;;;5022935;28;21078;-79
2023/02/27 00:12:37;;;;;;;0.10;0.10;;;0.30;99.90;;;;;;5018478;28;20178;-78
2023/02/27 00:15:12;;;;;;;0.07;0.07;;;0.30;99.90;;;;;;5022416;28;21275;-79
2023/02/27 00:17:38;;;;;;;0.10;0.10;;;0.20;99.90;;;;;;5020979;28;20213;-78
2023/02/27 00:20:06;;;;;;;0.10;0.10;;;0.20;99.90;;;;;;5017905;28;21215;-79
2023/02/27 00:22:31;;;;;;;0.10;0.10;;;0.20;99.90;;;;;;5018716;28;20265;-79
2023/02/27 00:24:57;;;;;;;0.10;0.10;;;0.20;99.90;;;;;;5022985;28;20282;-79
2023/02/27 00:27:23;;;;;;;0.10;0.10;;;0.30;99.90;;;;;;5015583;28;20222;-79
2023/02/27 00:29:48;;;;;;;0.10;0.10;;;0.30;99.90;;;;;;5021722;28;20642;-80
2023/02/27 00:32:14;;;;;;;0.10;0.10;;;0.30;99.90;;;;;;5021516;28;20222;-79
2023/02/27 00:34:40;;;;;;;0.10;0.10;;;0.30;99.90;;;;;;5018297;28;20268;-80
2023/02/27 00:37:06;;;;;;;0.10;0.10;;;0.30;99.90;;;;;;5020488;28;20225;-79
2023/02/27 00:39:32;;;;;;;0.10;0.10;;;0.30;99.90;;;;;;5022412;28;20186;-80
2023/02/27 00:41:57;;;;;;;0.10;0.10;;;0.20;99.90;;;;;;5021008;28;20213;-80
2023/02/27 00:44:23;;;;;;;0.10;0.10;;;0.10;99.90;;;;;;5020928;28;20213;-80
2023/02/27 00:46:48;;;;;;;0.10;0.10;;;0.30;99.90;;;;;;5026084;28;20179;-80
2023/02/27 00:49:14;;;;;;;0.10;0.10;;;0.30;99.90;;;;;;5020023;28;20182;-80
2023/02/27 00:51:40;;;;;;;0.10;0.10;;;0.30;99.90;;;;;;5026735;28;20248;-80
2023/02/27 00:54:05;;;;;;;0.10;0.10;;;0.30;99.90;;;;;;5026339;28;20257;-80
2023/02/27 00:56:31;;;;;;;0.10;0.10;;;0.30;99.90;;;;;;5024203;28;20186;-80
2023/02/27 00:58:56;;;;;;;0.10;0.10;;;0.30;99.90;;;;;;5020924;28;20189;-79
2023/02/27 01:01:22;;;;;;;0.10;0.10;;;0.20;99.90;;;;;;5026102;28;20220;-80
2023/02/27 01:03:47;;;;;;;0.10;0.10;;;0.20;99.90;;;;;;5020226;28;20178;-80
2023/02/27 01:06:13;;;;;;;0.10;0.10;;;0.20;99.90;;;;;;5020606;28;20209;-80
2023/02/27 01:08:38;;;;;;;0.10;0.10;;;0.10;99.90;;;;;;5025986;28;20251;-79
2023/02/27 01:11:04;;;;;;;0.10;0.10;;;0.20;99.90;;;;;;5019427;28;20672;-80
2023/02/27 01:13:30;;;;;;;0.07;0.07;;;0.20;99.90;;;;;;5026100;28;20198;-80
2023/02/27 01:15:56;;;;;;;0.10;0.10;;;0.20;99.90;;;;;;5021090;28;20207;-80
2023/02/27 01:18:21;;;;;;;0.10;0.10;;;0.20;99.90;;;;;;5019712;28;20602;-80
2023/02/27 01:20:52;;;;;;;0.10;0.10;;;0.20;99.90;;;;;;5022856;28;20232;-80
2023/02/27 01:23:17;;;;;;;0.10;0.10;;;0.10;99.90;;;;;;5024531;28;20179;-80
2023/02/27 01:25:43;;;;;;;0.10;0.10;;;0.10;99.90;;;;;;5017648;28;20577;-80
2023/02/27 01:28:09;;;;;;;0.10;0.10;;;0.20;99.90;;;;;;5021561;28;20179;-80
2023/02/27 01:30:34;;;;;;;0.10;0.10;;;0.20;99.90;;;;;;5025819;28;20267;-80
2023/02/27 01:33:00;;;;;;;0.10;0.10;;;0.10;99.90;;;;;;5020604;28;20290;-80
2023/02/27 01:35:26;;;;;;;0.10;0.10;;;0.20;99.90;;;;;;5020367;28;20301;-80
2023/02/27 01:37:51;;;;;;;0.10;0.10;;;0.20;99.90;;;;;;5021719;28;20261;-80
2023/02/27 01:40:17;;;;;;;0.10;0.10;;;0.20;99.90;;;;;;5018970;28;20257;-80
2023/02/27 01:42:43;;;;;;;0.10;0.10;;;0.10;99.90;;;;;;5025218;28;20187;-80
2023/02/27 01:45:11;;;;;;;0.10;0.10;;;0.20;99.90;;;;;;5025988;28;20748;-80
2023/02/27 01:47:44;;;;;;;0.10;0.10;;;0.20;99.90;;;;;;5024526;28;20205;-80
2023/02/27 01:50:11;;;;;;;0.50;0.50;;;0.10;99.90;;;;;;5023739;28;20303;-79
2023/02/27 01:52:39;;;;;;;0.10;0.10;;;0.10;99.90;;;;;;5024405;28;20180;-80
2023/02/27 01:55:07;;;;;;;0.10;0.10;;;0.10;99.90;;;;;;5023689;28;20202;-80
2023/02/27 01:57:33;;;;;;;0.10;0.10;;;0.10;99.90;;;;;;5025180;28;20234;-80
2023/02/27 01:59:59;;;;;;;0.10;0.10;;;0.10;99.90;;;;;;5021757;28;20205;-79
2023/02/27 02:02:32;;;;;;;0.10;0.10;;;0.10;99.90;;;;;;5019820;28;20183;-80
2023/02/27 02:04:58;;;;;;;0.10;0.10;;;0.20;99.90;;;;;;5016916;28;20203;-79
2023/02/27 02:07:24;;;;;;;0.10;0.10;;;0.10;99.90;;;;;;5024553;28;20187;-80
2023/02/27 02:09:54;;;;;;;0.10;0.10;;;0.10;99.90;;;;;;5022575;28;20197;-80
2023/02/27 02:12:26;;;;;;;0.07;0.07;;;0.10;99.90;;;;;;5023136;28;20180;-81
2023/02/27 02:14:52;;;;;;;0.10;0.10;;;0.10;99.90;;;;;;5018137;28;20206;-80
2023/02/27 02:17:29;;;;;;;0.10;0.10;;;0.10;99.90;;;;;;5020179;28;20186;-80
2023/02/27 02:20:32;;;;;;;0.10;0.10;;;0.10;99.90;;;;;;5024111;28;20178;-80
2023/02/27 02:23:21;;;;;;;0.10;0.10;;;0.10;99.90;;;;;;5016347;28;20197;-80
2023/02/27 02:25:52;;;;;;;0.10;0.10;;;0.00;99.90;;;;;;5022376;28;20212;-80
2023/02/27 02:28:52;;;;;;;0.10;0.10;;;0.00;99.90;;;;;;5019492;28;20168;-80
2023/02/27 02:31:55;;;;;;;0.10;0.10;;;0.00;99.90;;;;;;5022928;28;20183;-80
2023/02/27 02:34:59;;;;;;;0.10;0.10;;;0.10;99.90;;;;;;5023498;28;20264;-79
2023/02/27 02:37:46;;;;;;;0.10;0.10;;;0.10;99.90;;;;;;5024918;28;20655;-80
2023/02/27 02:40:37;;;;;;;0.10;0.10;;;0.00;99.90;;;;;;5022285;28;20209;-80
2023/02/27 02:43:23;;;;;;;0.10;0.10;;;0.00;99.90;;;;;;5023214;28;20237;-79
2023/02/27 02:46:15;;;;;;;0.10;0.10;;;0.10;99.90;;;;;;5017647;28;20604;-79
2023/02/27 02:48:50;;;;;;;0.10;0.10;;;0.10;99.90;;;;;;5022362;28;20233;-80
2023/02/27 02:51:42;;;;;;;0.10;0.10;;;0.00;99.90;;;;;;5023327;28;20186;-80
2023/02/27 02:54:16;;;;;;;0.10;0.10;;;0.00;99.90;;;;;;4999746;28;20210;-79
2023/02/27 02:57:18;;;;;;;0.10;0.10;;;0.00;99.90;;;;;;5019766;28;20245;-80
2023/02/27 02:59:54;;;;;;;0.10;0.10;;;0.00;99.90;;;;;;5006716;28;20213;-79
2023/02/27 03:02:26;;;;;;;0.10;0.10;;;0.10;99.90;;;;;;5021865;28;20192;-79
2023/02/27 03:04:57;;;;;;;0.10;0.10;;;0.10;99.90;;;;;;5015626;28;20254;-80
2023/02/27 03:07:29;;;;;;;0.10;0.10;;;0.00;99.90;;;;;;5022467;28;20185;-80
2023/02/27 03:10:08;;;;;;;0.10;0.10;;;0.00;99.90;;;;;;5021360;28;20186;-80
2023/02/27 03:12:38;;;;;;;0.10;0.10;;;-0.10;99.90;;;;;;5020398;28;20185;-79
2023/02/27 03:15:24;;;;;;;0.10;0.10;;;-0.10;99.90;;;;;;5023429;28;20213;-80
2023/02/27 03:17:58;;;;;;;0.10;0.10;;;-0.10;99.90;;;;;;5015524;28;20232;-80
2023/02/27 03:20:34;;;;;;;0.10;0.10;;;-0.20;99.90;;;;;;5021359;28;20210;-80
2023/02/27 03:23:05;;;;;;;0.10;0.10;;;-0.20;99.90;;;;;;5021864;28;20738;-80
2023/02/27 03:25:32;;;;;;;0.10;0.10;;;-0.10;99.90;;;;;;5021463;28;20308;-80
2023/02/27 03:28:02;;;;;;;0.10;0.10;;;-0.10;99.90;;;;;;5022868;28;20186;-80
2023/02/27 03:30:43;;;;;;;0.10;0.10;;;-0.10;99.90;;;;;;5023692;28;20196;-80
2023/02/27 03:33:19;;;;;;;0.10;0.10;;;-0.10;99.90;;;;;;5023318;28;20539;-80
2023/02/27 03:35:52;;;;;;;0.10;0.10;;;-0.10;99.90;;;;;;5021991;28;20207;-80
2023/02/27 03:38:46;;;;;;;0.10;0.10;;;-0.10;99.90;;;;;;5021567;28;20186;-80
2023/02/27 03:41:26;;;;;;;0.10;0.10;;;-0.10;99.90;;;;;;5021033;28;20222;-80
2023/02/27 03:44:19;;;;;;;0.10;0.10;;;-0.10;99.90;;;;;;5021557;28;20265;-80
2023/02/27 03:46:45;;;;;;;0.10;0.10;;;-0.20;99.90;;;;;;5020645;28;20190;-80
2023/02/27 03:49:10;;;;;;;0.10;0.10;;;-0.10;99.90;;;;;;5017962;28;20193;-80
2023/02/27 03:51:36;;;;;;;0.10;0.10;;;-0.10;99.90;;;;;;5019230;28;20219;-80
2023/02/27 03:54:19;;;;;;;0.10;0.10;;;0.00;99.90;;;;;;5019792;28;20285;-80
2023/02/27 03:56:59;;;;;;;0.10;0.10;;;-0.10;99.90;;;;;;5022155;28;20299;-80
2023/02/27 03:59:25;;;;;;;0.10;0.10;;;-0.20;99.90;;;;;;5021870;28;20192;-80
2023/02/27 04:01:52;;;;;;;0.10;0.10;;;-0.20;99.90;;;;;;5016610;28;20225;-80
2023/02/27 04:04:18;;;;;;;0.10;0.10;;;-0.20;99.90;;;;;;5018358;28;20229;-80
2023/02/27 04:10:16;;;;;;;0.10;0.10;;;0.00;99.90;;;;;;5022581;28;20193;-80
2023/02/27 04:12:57;;;;;;;0.10;0.10;;;0.00;99.90;;;;;;5017116;28;20526;-80
2023/02/27 04:16:11;;;;;;;0.07;0.07;;;-0.10;99.90;;;;;;5025118;28;20285;-80
2023/02/27 04:19:08;;;;;;;0.10;0.10;;;-0.20;99.90;;;;;;5024502;28;20190;-79
2023/02/27 04:21:48;;;;;;;0.10;0.10;;;-0.20;99.90;;;;;;5019681;28;20293;-79
2023/02/27 04:24:23;;;;;;;0.10;0.10;;;-0.10;99.90;;;;;;5024951;28;20198;-80
2023/02/27 04:27:05;;;;;;;0.10;0.10;;;0.00;99.90;;;;;;5025348;28;20600;-80
2023/02/27 04:29:59;;;;;;;0.10;0.10;;;0.00;99.90;;;;;;5025730;28;20185;-79
2023/02/27 04:32:39;;;;;;;0.10;0.10;;;-0.10;99.90;;;;;;5026389;28;20206;-79
2023/02/27 04:35:10;;;;;;;0.10;0.10;;;-0.10;99.90;;;;;;5022932;28;20202;-80
2023/02/27 04:37:53;;;;;;;0.10;0.10;;;-0.10;99.90;;;;;;5025403;28;20194;-80
2023/02/27 04:40:26;;;;;;;0.10;0.10;;;-0.10;99.90;;;;;;5018874;28;20195;-80
2023/02/27 04:42:56;;;;;;;0.10;0.10;;;-0.10;99.90;;;;;;5025047;28;20683;-80
2023/02/27 04:45:24;;;;;;;0.10;0.10;;;-0.10;99.90;;;;;;5021083;28;20907;-79
2023/02/27 04:48:17;;;;;;;0.10;0.10;;;0.00;99.90;;;;;;5023024;28;20548;-80
2023/02/27 04:50:49;;;;;;;0.10;0.10;;;-0.10;99.90;;;;;;5022098;28;20744;-80
2023/02/27 04:53:40;;;;;;;0.10;0.10;;;-0.10;99.90;;;;;;5026316;28;20263;-80
2023/02/27 04:56:15;;;;;;;0.10;0.10;;;-0.20;99.90;;;;;;5025098;28;20213;-80
2023/02/27 04:58:50;;;;;;;0.10;0.10;;;-0.20;99.90;;;;;;5024896;28;20190;-80
2023/02/27 05:01:23;;;;;;;0.00;0.00;;;-0.20;99.90;;;;;;5025125;28;20584;-79
2023/02/27 05:03:53;;;;;;;0.10;0.10;;;-0.20;99.90;;;;;;5025566;28;20201;-80
2023/02/27 05:06:22;;;;;;;0.10;0.10;;;-0.20;99.90;;;;;;5023151;28;20712;-79
2023/02/27 05:09:08;;;;;;;0.10;0.10;;;-0.20;99.90;;;;;;5025353;28;20277;-80
2023/02/27 05:11:57;;;;;;;0.10;0.10;;;-0.30;99.90;;;;;;5018386;28;20588;-79
2023/02/27 05:14:35;;;;;;;0.10;0.10;;;-0.30;99.90;;;;;;5024459;28;20258;-80
2023/02/27 05:17:20;;;;;;;0.10;0.10;;;-0.20;99.90;;;;;;5023725;28;20186;-80
2023/02/27 05:19:46;;;;;;;0.10;0.10;;;-0.20;99.90;;;;;;5024040;28;20187;-80
2023/02/27 05:22:21;;;;;;;0.10;0.10;;;-0.30;99.90;;;;;;5023887;28;20200;-79
2023/02/27 05:24:56;;;;;;;0.10;0.10;;;-0.20;99.90;;;;;;5024373;28;20214;-80
2023/02/27 05:28:08;;;;;;;0.10;0.10;;;-0.20;99.90;;;;;;5020638;28;20174;-80
2023/02/27 05:30:41;;;;;;;0.10;0.10;;;-0.30;99.90;;;;;;5023401;28;20687;-79
2023/02/27 05:33:25;;;;;;;0.10;0.10;;;-0.30;99.90;;;;;;5019425;28;20190;-80
2023/02/27 05:36:16;;;;;;;0.10;0.10;;;-0.20;99.90;;;;;;5023453;28;20264;-80
2023/02/27 05:38:54;;;;;;;0.10;0.10;;;-0.20;99.90;;;;;;5024393;28;20695;-80
2023/02/27 05:41:27;;;;;;;0.10;0.10;;;-0.30;99.90;;;;;;5023802;28;20234;-80
2023/02/27 05:44:10;;;;;;;0.10;0.10;;;-0.30;99.90;;;;;;5025297;28;20191;-80
2023/02/27 05:46:41;;;;;;;0.10;0.10;;;-0.30;99.90;;;;;;5023900;28;20202;-80
2023/02/27 05:49:17;;;;;;;0.10;0.10;;;-0.30;99.90;;;;;;5017047;28;20881;-80
2023/02/27 05:51:46;;;;;;;0.10;0.10;;;-0.30;99.90;;;;;;5024117;28;20174;-80
2023/02/27 05:54:40;;;;;;;0.10;0.10;;;-0.40;99.90;;;;;;5022750;28;20717;-80
2023/02/27 05:57:10;;;;;;;0.10;0.10;;;-0.30;99.90;;;;;;5022538;28;20183;-80
2023/02/27 05:59:52;;;;;;;0.10;0.10;;;-0.30;99.90;;;;;;5022488;28;20194;-79
2023/02/27 06:02:18;;;;;;;0.10;0.10;;;-0.30;99.90;;;;;;5021245;28;20206;-79
2023/02/27 06:04:44;;;;;;;0.07;0.07;;;-0.30;99.90;;;;;;5024468;28;20264;-79
2023/02/27 06:07:12;;;;;;;0.10;0.10;;;-0.20;99.90;;;;;;5022661;28;20182;-78
2023/02/27 06:09:38;;;;;;;0.10;0.10;;;-0.30;99.90;;;;;;5017889;28;20202;-77
2023/02/27 06:12:03;;;;;;;0.10;0.10;;;-0.20;99.90;;;;;;5021110;28;20189;-77
2023/02/27 06:14:29;;;;;;;0.10;0.10;;;-0.20;99.90;;;;;;5016753;28;20210;-78
2023/02/27 06:16:54;;;;;;;0.10;0.10;;;-0.20;99.90;;;;;;5018777;28;20187;-78
2023/02/27 06:19:20;;;;;;;0.10;0.10;;;-0.20;99.90;;;;;;5020144;28;20713;-78
2023/02/27 06:21:45;;;;;;;0.10;0.10;;;-0.20;99.90;;;;;;5017837;28;20211;-78
2023/02/27 06:24:11;;;;;;;0.10;0.10;;;-0.20;99.90;;;;;;5017693;28;20561;-79
2023/02/27 06:26:36;;;;;;;0.10;0.10;;;-0.20;99.90;;;;;;5015262;28;20229;-79
2023/02/27 06:29:02;;;;;;;0.10;0.10;;;-0.10;99.90;;;;;;5016828;28;20203;-78
2023/02/27 06:31:27;;;;;;;0.10;0.10;;;-0.10;99.90;;;;;;5022550;28;20186;-78
2023/02/27 06:33:54;;;;;;;0.10;0.10;;;-0.10;99.90;;;;;;5020615;28;20267;-78
2023/02/27 06:36:21;;;;;;;0.10;0.10;;;-0.10;99.90;;;;;;5020821;28;20190;-78
2023/02/27 06:38:47;;;;;;;0.10;0.10;;;0.00;99.90;;;;;;5019446;28;20188;-78
2023/02/27 06:41:14;;;;;;;0.10;0.10;;;0.00;99.90;;;;;;5018582;28;20603;-80
2023/02/27 06:43:39;;;;;;;0.10;0.10;;;0.00;99.90;;;;;;5022399;28;20217;-80
2023/02/27 06:46:05;;;;;;;0.10;0.10;;;0.10;99.90;;;;;;5025460;28;20179;-80
2023/02/27 06:48:30;;;;;;;0.10;0.10;;;0.20;99.90;;;;;;5025200;28;20446;-80
2023/02/27 06:50:56;;;;;;;0.10;0.10;;;0.20;99.90;;;;;;5026385;28;20197;-80
2023/02/27 06:53:23;;;;;;;0.00;0.00;;;0.30;99.90;;;;;;5018574;28;20190;-80
2023/02/27 06:55:48;;;;;;;0.10;0.10;;;0.30;99.90;;;;;;5019733;28;20884;-80
2023/02/27 06:58:15;;;;;;;0.10;0.10;;;0.40;99.90;;;;;;5025052;28;20194;-80
2023/02/27 07:00:42;;;;;;;0.10;0.10;;;0.40;99.90;;;;;;5019831;28;20715;-80
2023/02/27 07:03:08;;;;;;;0.10;0.10;;;0.40;99.90;;;;;;5026307;28;20629;-80
2023/02/27 07:05:33;;;;;;;0.10;0.10;;;0.50;99.90;;;;;;5020579;28;20213;-80
2023/02/27 07:07:59;;;;;;;0.10;0.10;;;0.50;99.90;;;;;;5041221;28;20187;-80
2023/02/27 07:10:24;;;;;;;0.10;0.10;;;0.60;99.90;;;;;;5022126;28;20197;-80
2023/02/27 07:12:50;;;;;;;0.10;0.10;;;0.60;99.90;;;;;;5033887;28;20195;-80
2023/02/27 07:15:16;;;;;;;0.10;0.10;;;0.60;99.90;;;;;;5019436;28;20241;-81
2023/02/27 07:17:42;;;;;;;0.10;0.10;;;0.60;99.90;;;;;;5014818;28;20186;-80
2023/02/27 07:20:09;;;;;;;0.10;0.10;;;0.70;99.90;;;;;;5018432;28;20268;-80
2023/02/27 07:22:35;;;;;;;0.10;0.10;;;0.80;99.90;;;;;;5020920;28;20249;-80
2023/02/27 07:25:01;;;;;;;0.10;0.10;;;0.90;99.90;;;;;;5019193;28;20216;-80
2023/02/27 07:27:27;;;;;;;0.10;0.10;;;0.90;99.90;;;;;;5035532;28;20202;-80
2023/02/27 07:29:53;;;;;;;0.10;0.10;;;1.00;99.90;;;;;;5018727;28;20244;-80
2023/02/27 07:32:18;;;;;;;0.10;0.10;;;1.10;99.90;;;;;;5017953;28;20762;-80
2023/02/27 07:34:44;;;;;;;0.00;0.00;;;1.10;99.90;;;;;;5020845;28;20236;-80
2023/02/27 07:37:09;;;;;;;0.20;0.20;;;1.10;99.90;;;;;;5018770;28;20197;-80
2023/02/27 07:39:35;;;;;;;0.10;0.10;;;1.10;99.90;;;;;;5015244;28;20288;-80
2023/02/27 07:42:00;;;;;;;0.10;0.10;;;1.20;99.90;;;;;;5022145;28;20217;-80
2023/02/27 07:44:26;;;;;;;0.10;0.10;;;1.30;99.90;;;;;;5013820;28;20605;-80
2023/02/27 07:46:51;;;;;;;0.10;0.10;;;1.30;99.90;;;;;;5021115;28;20654;-80
2023/02/27 07:49:17;;;;;;;0.10;0.10;;;1.30;99.90;;;;;;5015097;28;20229;-80
2023/02/27 07:51:42;;;;;;;0.00;0.00;;;1.60;99.90;;;;;;5020198;28;20241;-81
2023/02/27 07:54:08;;;;;;;0.10;0.10;;;1.50;99.90;;;;;;5020765;28;20269;-80
2023/02/27 07:56:34;;;;;;;0.10;0.10;;;1.50;99.90;;;;;;5020783;28;20207;-81
2023/02/27 07:58:59;;;;;;;0.10;0.10;;;1.60;99.90;;;;;;5021357;28;20563;-81
2023/02/27 08:01:25;;;;;;;0.10;0.10;;;1.70;99.90;;;;;;4985334;28;1062586;-80
2023/02/27 08:03:51;;;;;;;0.10;0.10;;;1.70;99.90;;;;;;5022076;28;20219;-81
2023/02/27 08:06:16;;;;;;;0.10;0.10;;;1.80;99.90;;;;;;5016953;28;20902;-80
2023/02/27 08:08:42;;;;;;;0.10;0.10;;;1.80;99.90;;;;;;5018169;28;20184;-79
2023/02/27 08:11:07;;;;;;;0.10;0.10;;;1.60;99.90;;;;;;5018882;28;20191;-80
2023/02/27 08:13:33;;;;;;;0.10;0.10;;;1.90;99.90;;;;;;5017644;28;20193;-80
2023/02/27 08:15:59;;;;;;;0.00;0.00;;;2.10;99.90;;;;;;5022053;28;20253;-80
2023/02/27 08:18:24;;;;;;;0.10;0.10;;;1.90;99.90;;;;;;5020052;28;20188;-80
2023/02/27 08:20:50;;;;;;;0.10;0.10;;;1.80;99.90;;;;;;5021133;28;20209;-80
2023/02/27 08:23:15;;;;;;;0.10;0.10;;;1.70;99.90;;;;;;5018858;28;20197;-80
2023/02/27 08:25:41;;;;;;;0.10;0.10;;;2.00;99.90;;;;;;5017706;28;20302;-80
2023/02/27 08:28:06;;;;;;;0.10;0.10;;;2.10;99.90;;;;;;5019095;28;20181;-80
2023/02/27 08:30:32;;;;;;;0.10;0.10;;;2.00;99.90;;;;;;5017020;28;20544;-80
2023/02/27 08:32:57;;;;;;;19.00;17.80;;;1.80;99.90;;;;;;5016297;28;20213;-80
2023/02/27 08:35:23;;;;;;;0.10;0.10;;;2.10;99.90;;;;;;5019391;28;20300;-80
2023/02/27 08:37:48;;;;;;;0.10;0.10;;;2.30;99.90;;;;;;5021830;28;20230;-79
2023/02/27 08:40:15;;;;;;;0.10;0.10;;;2.30;99.90;;;;;;5022322;28;20194;-80
2023/02/27 08:42:41;;;;;;;0.10;0.10;;;2.30;99.90;;;;;;5021989;28;20196;-80
2023/02/27 08:45:07;;;;;;;0.10;0.10;;;2.10;99.90;;;;;;5021524;28;20206;-79
2023/02/27 08:47:33;;;;;;;0.10;0.10;;;2.30;99.90;;;;;;5015554;28;20189;-79
2023/02/27 08:49:58;;;;;;;0.10;0.10;;;2.10;99.90;;;;;;5021531;28;20186;-80
2023/02/27 08:52:24;;;;;;;0.10;0.10;;;2.20;99.90;;;;;;5021809;28;20256;-81
2023/02/27 08:54:49;;;;;;;0.10;0.10;;;2.30;99.90;;;;;;5016585;28;20221;-81
2023/02/27 08:57:15;;;;;;;0.10;0.10;;;2.30;99.90;;;;;;5014685;28;20193;-81
2023/02/27 08:59:40;;;;;;;0.83;0.83;;;2.20;99.90;;;;;;5016749;28;20608;-80
2023/02/27 09:02:06;;;;;;;0.10;0.10;;;2.20;99.90;;;;;;5019115;28;20217;-81
2023/02/27 09:04:31;;;;;;;0.10;0.10;;;2.40;99.90;;;;;;5024390;28;20217;-80
2023/02/27 09:06:57;;;;;;;0.10;0.10;;;2.20;99.90;;;;;;5027044;28;20228;-80
2023/02/27 09:09:23;;;;;;;0.10;0.10;;;2.30;99.90;;;;;;5023125;28;20197;-81
2023/02/27 09:11:50;;;;;;;0.10;0.10;;;2.70;99.90;;;;;;5021072;28;20191;-81
2023/02/27 09:14:16;;;;;;;0.10;0.10;;;2.40;99.90;;;;;;5022013;28;20231;-81
2023/02/27 09:16:41;;;;;;;0.10;0.10;;;2.40;99.90;;;;;;5020973;28;20675;-81
2023/02/27 09:19:07;;;;;;;0.10;0.10;;;2.30;99.90;;;;;;5019322;28;20242;-81
2023/02/27 09:21:32;;;;;;;0.10;0.10;;;2.40;99.90;;;;;;5023093;28;20309;-81
2023/02/27 09:23:58;;;;;;;0.10;0.10;;;2.60;99.90;;;;;;5023368;28;20554;-80
2023/02/27 09:26:25;;;;;;;0.10;0.10;;;2.40;99.90;;;;;;5018797;28;20185;-81
2023/02/27 09:28:50;;;;;;;0.10;0.10;;;2.40;99.90;;;;;;5017651;28;20666;-81
2023/02/27 09:31:16;;;;;;;0.10;0.10;;;2.40;99.90;;;;;;5016418;28;20188;-81
2023/02/27 09:33:43;;;;;;;0.10;0.10;;;2.70;99.90;;;;;;5020483;28;20188;-80
2023/02/27 09:36:09;;;;;;;0.10;0.10;;;2.60;99.90;;;;;;5020744;28;20216;-80
2023/02/27 09:38:35;;;;;;;0.10;0.10;;;2.60;99.90;;;;;;5023441;28;20200;-81
2023/02/27 09:41:02;;;;;;;0.10;0.10;;;2.80;99.90;;;;;;5022815;28;20581;-81
2023/02/27 09:43:41;;;;;;;0.10;0.10;;;2.60;99.90;;;;;;5019440;28;20232;-81
2023/02/27 09:46:15;;;;;;;0.10;0.10;;;2.60;99.90;;;;;;5024456;28;20189;-81
2023/02/27 09:48:45;;;;;;;0.10;0.10;;;2.50;99.90;;;;;;5023852;28;20220;-80
2023/02/27 09:51:14;;;;;;;0.10;0.10;;;2.60;99.90;;;;;;5020591;28;20638;-80
2023/02/27 09:53:42;;;;;;;0.10;0.10;;;2.40;99.90;;;;;;5022798;28;20197;-80
2023/02/27 09:56:24;;;;;;;0.10;0.10;;;2.40;99.90;;;;;;5022425;28;20280;-80
2023/02/27 09:58:55;;;;;;;0.10;0.10;;;2.90;99.90;;;;;;5017742;28;20192;-80
2023/02/27 10:01:32;;;;;;;0.10;0.10;;;3.30;99.90;;;;;;5025078;28;20302;-80
2023/02/27 10:04:31;;;;;;;0.10;0.10;;;3.70;99.90;;;;;;5022756;28;20182;-84
2023/02/27 10:07:16;;;;;;;0.10;0.10;;;3.20;99.90;;;;;;5019449;28;20197;-82
2023/02/27 10:09:46;;;;;;;0.10;0.10;;;3.40;99.90;;;;;;5018382;28;20212;-82
2023/02/27 10:12:40;;;;;;;0.00;0.00;;;3.20;99.90;;;;;;5023320;28;20284;-82
2023/02/27 10:15:26;;;;;;;0.10;0.10;;;3.30;99.90;;;;;;5016803;28;20297;-82
2023/02/27 10:17:59;;;;;;;0.10;0.10;;;3.60;99.90;;;;;;5017039;28;20204;-82
2023/02/27 10:20:32;;;;;;;0.10;0.10;;;3.30;99.90;;;;;;5016471;28;20220;-82
2023/02/27 10:23:03;;;;;;;0.10;0.10;;;3.30;99.90;;;;;;5025141;28;20186;-82
2023/02/27 10:25:44;;;;;;;0.10;0.10;;;3.30;99.90;;;;;;5025137;28;20208;-82
2023/02/27 10:28:18;;;;;;;0.10;0.10;;;3.30;99.90;;;;;;5020317;28;20190;-82
2023/02/27 10:30:48;;;;;;;0.00;0.00;;;3.00;99.90;;;;;;5022045;28;20190;-82
2023/02/27 10:33:36;;;;;;;0.10;0.10;;;2.50;99.90;;;;;;5015580;28;20193;-79
2023/02/27 10:36:02;;;;;;;0.10;0.10;;;2.40;99.90;;;;;;5018077;28;20317;-80
2023/02/27 10:38:34;;;;;;;0.10;0.10;;;2.10;99.90;;;;;;5022235;28;20196;-80
2023/02/27 10:41:00;;;;;;;0.10;0.10;;;2.30;99.90;;;;;;5020966;28;20214;-80
2023/02/27 10:43:26;;;;;;;4.53;2.20;;;2.20;99.90;;;;;;5023895;28;20197;-79
2023/02/27 10:45:53;;;;;;;0.10;0.10;;;2.60;99.90;;;;;;5020892;28;20579;-80
2023/02/27 10:48:19;;;;;;;0.10;0.10;;;2.60;99.90;;;;;;5021152;28;20198;-80
2023/02/27 10:50:50;;;;;;;0.10;0.10;;;2.40;99.90;;;;;;5014810;28;20670;-80
2023/02/27 10:53:25;;;;;;;0.10;0.10;;;2.40;99.90;;;;;;5020652;28;20198;-83
2023/02/27 10:56:00;;;;;;;0.10;0.10;;;2.40;99.90;;;;;;5016180;28;20290;-80
2023/02/27 10:58:31;;;;;;;0.10;0.10;;;2.70;99.90;;;;;;5024356;28;20212;-80
2023/02/27 11:00:59;;;;;;;0.10;0.10;;;2.70;99.90;;;;;;5022271;28;20252;-80
2023/02/27 11:03:28;;;;;;;0.10;0.10;;;3.20;99.90;;;;;;5018271;28;20200;-80
2023/02/27 11:06:23;;;;;;;0.10;0.10;;;3.10;99.90;;;;;;5020139;28;20303;-80
2023/02/27 11:09:09;;;;;;;0.10;0.10;;;3.50;99.90;;;;;;5021238;28;20189;-79
2023/02/27 11:11:34;;;;;;;0.10;0.10;;;3.50;99.90;;;;;;5019450;28;20193;-80
2023/02/27 11:14:23;;;;;;;0.10;0.10;;;3.20;99.90;;;;;;5020015;28;20192;-80
2023/02/27 11:16:52;;;;;;;0.10;0.10;;;3.20;99.90;;;;;;5021192;28;20189;-80
2023/02/27 11:19:44;;;;;;;0.10;0.10;;;3.60;99.90;;;;;;5018983;28;20197;-81
2023/02/27 11:22:23;;;;;;;0.10;0.10;;;3.60;99.90;;;;;;5019221;28;20699;-80
2023/02/27 11:24:49;;;;;;;0.10;0.10;;;3.90;99.90;;;;;;5019409;28;20201;-81
2023/02/27 11:27:25;;;;;;;0.10;0.10;;;3.90;99.90;;;;;;5023382;28;21129;-81
2023/02/27 11:30:00;;;;;;;0.10;0.10;;;4.20;99.90;;;;;;5017014;28;20186;-81
2023/02/27 11:32:35;;;;;;;0.10;0.10;;;3.90;99.90;;;;;;5019550;28;20199;-81
2023/02/27 11:35:03;;;;;;;0.10;0.10;;;3.50;99.90;;;;;;5022263;28;20209;-80
2023/02/27 11:37:35;;;;;;;0.10;0.10;;;3.90;99.90;;;;;;5022460;28;20197;-80
2023/02/27 11:40:13;;;;;;;0.10;0.10;;;4.00;99.90;;;;;;5016463;28;20216;-81
2023/02/27 11:42:48;;;;;;;0.10;0.10;;;3.80;99.90;;;;;;5019969;28;20197;-80
2023/02/27 11:45:20;;;;;;;0.10;0.10;;;4.00;99.90;;;;;;5015973;28;20202;-79
2023/02/27 11:47:49;;;;;;;0.10;0.10;;;3.90;99.90;;;;;;5017556;28;20224;-80
2023/02/27 11:50:52;;;;;;;0.10;0.10;;;3.80;99.90;;;;;;5018111;28;20186;-80
2023/02/27 11:53:39;;;;;;;0.10;0.10;;;3.80;99.90;;;;;;5017563;28;20717;-79
2023/02/27 11:56:15;;;;;;;0.00;0.00;;;3.80;99.90;;;;;;5018852;28;20208;-79
2023/02/27 11:59:07;;;;;;;0.10;0.10;;;3.50;99.90;;;;;;5019828;28;20190;-79
2023/02/27 12:01:46;;;;;;;0.10;0.10;;;3.40;99.90;;;;;;5010015;28;20224;-79
2023/02/27 12:04:38;;;;;;;0.10;0.10;;;3.30;99.90;;;;;;5024426;28;20220;-79
2023/02/27 12:07:26;;;;;;;0.10;0.10;;;3.20;99.90;;;;;;5019574;28;20174;-79
2023/02/27 12:10:06;;;;;;;0.10;0.10;;;3.20;99.90;;;;;;5019428;28;20181;-79
2023/02/27 12:12:54;;;;;;;0.10;0.10;;;3.30;99.90;;;;;;5017057;28;20252;-79
2023/02/27 12:15:47;;;;;;;0.10;0.10;;;3.50;99.90;;;;;;5021104;28;20208;-79
2023/02/27 12:18:22;;;;;;;0.10;0.10;;;3.40;99.90;;;;;;5015610;28;20186;-79
2023/02/27 12:20:51;;;;;;;0.10;0.10;;;3.40;99.90;;;;;;5019506;28;20753;-79
2023/02/27 12:23:37;;;;;;;0.10;0.10;;;3.60;99.90;;;;;;5021804;28;20188;-79
2023/02/27 12:26:20;;;;;;;0.10;0.10;;;3.80;99.90;;;;;;5020549;28;20683;-80
2023/02/27 12:28:52;;;;;;;0.10;0.10;;;4.00;99.90;;;;;;5020157;28;21180;-81
2023/02/27 12:31:36;;;;;;;0.10;0.10;;;4.30;99.90;;;;;;5018887;28;20265;-81
2023/02/27 12:34:17;;;;;;;0.10;0.10;;;4.70;99.90;;;;;;5017936;28;20273;-81
2023/02/27 12:36:43;;;;;;;0.10;0.10;;;4.90;99.90;;;;;;5024467;28;20206;-79
2023/02/27 12:39:21;;;;;;;0.10;0.10;;;5.00;99.90;;;;;;5021570;28;20186;-79
2023/02/27 12:42:02;;;;;;;0.10;0.10;;;4.70;99.90;;;;;;5028745;28;20228;-79
2023/02/27 12:44:40;;;;;;;0.10;0.10;;;4.80;99.90;;;;;;5026247;28;20207;-79
2023/02/27 12:47:28;;;;;;;0.10;0.10;;;5.00;99.90;;;;;;5027062;28;20178;-79
2023/02/27 12:50:04;;;;;;;0.10;0.10;;;4.90;99.90;;;;;;5024047;28;20699;-79
2023/02/27 12:52:57;;;;;;;0.10;0.10;;;5.20;99.90;;;;;;5024874;28;20178;-79
2023/02/27 12:55:27;;;;;;;0.10;0.10;;;5.20;99.90;;;;;;5027833;28;20233;-79
2023/02/27 12:58:15;;;;;;;0.10;0.10;;;5.00;99.90;;;;;;5025023;28;20190;-80
2023/02/27 13:01:10;;;;;;;0.10;0.10;;;4.80;99.90;;;;;;5025968;28;20777;-80
2023/02/27 13:03:49;;;;;;;0.10;0.10;;;4.90;99.90;;;;;;5024621;28;20191;-79
2023/02/27 13:06:24;;;;;;;0.10;0.10;;;4.60;99.90;;;;;;5025394;28;21262;-79
2023/02/27 13:09:07;;;;;;;0.10;0.10;;;4.40;99.90;;;;;;5026320;28;20211;-79
2023/02/27 13:11:43;;;;;;;0.10;0.10;;;4.10;99.90;;;;;;5023313;28;20197;-79
2023/02/27 13:14:29;;;;;;;0.10;0.10;;;3.90;99.90;;;;;;5022986;28;20206;-79
2023/02/27 13:17:15;;;;;;;0.10;0.10;;;4.20;99.90;;;;;;5027146;28;20229;-79
2023/02/27 13:19:53;;;;;;;0.10;0.10;;;4.20;99.90;;;;;;5023520;28;20201;-80
2023/02/27 13:22:40;;;;;;;1.63;1.57;;;4.40;99.90;;;;;;5026468;28;20209;-79
2023/02/27 13:25:13;;;;;;;0.10;0.10;;;4.30;99.90;;;;;;5027497;28;20195;-79
2023/02/27 13:27:42;;;;;;;0.10;0.10;;;4.20;99.90;;;;;;5028152;28;20205;-79